sensor_id;sensor_type;location;lat;lon;timestamp;temperature;humidity
7900;DHT22;3995;50.856;4.404;2023-07-09T00:00:14;27.50;62.10
7900;DHT22;3995;50.856;4.404;2023-07-09T00:02:43;27.40;61.80
7900;DHT22;3995;50.856;4.404;2023-07-09T00:05:13;27.40;61.50
7900;DHT22;3995;50.856;4.404;2023-07-09T00:07:41;27.40;61.70
7900;DHT22;3995;50.856;4.404;2023-07-09T00:10:19;27.40;61.70
7900;DHT22;3995;50.856;4.404;2023-07-09T00:12:49;27.40;61.50
7900;DHT22;3995;50.856;4.404;2023-07-09T00:15:16;27.40;61.70
7900;DHT22;3995;50.856;4.404;2023-07-09T00:17:44;27.40;61.90
7900;DHT22;3995;50.856;4.404;2023-07-09T00:20:13;27.30;61.80
7900;DHT22;3995;50.856;4.404;2023-07-09T00:22:41;27.30;61.90
7900;DHT22;3995;50.856;4.404;2023-07-09T00:25:19;27.30;61.90
7900;DHT22;3995;50.856;4.404;2023-07-09T00:27:48;27.40;61.80
7900;DHT22;3995;50.856;4.404;2023-07-09T00:30:19;27.30;61.70
7900;DHT22;3995;50.856;4.404;2023-07-09T00:32:47;27.30;61.90
7900;DHT22;3995;50.856;4.404;2023-07-09T00:35:14;27.30;61.90
7900;DHT22;3995;50.856;4.404;2023-07-09T00:37:43;27.30;62.10
7900;DHT22;3995;50.856;4.404;2023-07-09T00:40:16;27.30;62.10
7900;DHT22;3995;50.856;4.404;2023-07-09T00:42:45;27.30;62.20
7900;DHT22;3995;50.856;4.404;2023-07-09T00:45:20;27.30;62.30
7900;DHT22;3995;50.856;4.404;2023-07-09T00:47:55;27.30;62.20
7900;DHT22;3995;50.856;4.404;2023-07-09T00:50:35;27.30;62.30
7900;DHT22;3995;50.856;4.404;2023-07-09T00:53:09;27.30;62.40
7900;DHT22;3995;50.856;4.404;2023-07-09T00:55:41;27.30;62.60
7900;DHT22;3995;50.856;4.404;2023-07-09T00:58:13;27.20;62.50
7900;DHT22;3995;50.856;4.404;2023-07-09T01:00:46;27.20;62.50
7900;DHT22;3995;50.856;4.404;2023-07-09T01:03:32;27.20;62.50
7900;DHT22;3995;50.856;4.404;2023-07-09T01:06:02;27.20;62.50
7900;DHT22;3995;50.856;4.404;2023-07-09T01:08:33;27.20;62.70
7900;DHT22;3995;50.856;4.404;2023-07-09T01:11:02;27.10;62.70
7900;DHT22;3995;50.856;4.404;2023-07-09T01:13:30;27.10;62.70
7900;DHT22;3995;50.856;4.404;2023-07-09T01:16:02;27.10;62.70
7900;DHT22;3995;50.856;4.404;2023-07-09T01:18:29;27.10;62.70
7900;DHT22;3995;50.856;4.404;2023-07-09T01:21:08;27.10;62.80
7900;DHT22;3995;50.856;4.404;2023-07-09T01:23:41;27.10;62.80
7900;DHT22;3995;50.856;4.404;2023-07-09T01:26:10;27.10;62.80
7900;DHT22;3995;50.856;4.404;2023-07-09T01:28:38;27.10;62.80
7900;DHT22;3995;50.856;4.404;2023-07-09T01:31:09;27.00;62.80
7900;DHT22;3995;50.856;4.404;2023-07-09T01:33:37;27.00;62.80
7900;DHT22;3995;50.856;4.404;2023-07-09T01:36:07;27.00;62.80
7900;DHT22;3995;50.856;4.404;2023-07-09T01:38:35;27.00;62.70
7900;DHT22;3995;50.856;4.404;2023-07-09T01:41:03;27.00;62.50
7900;DHT22;3995;50.856;4.404;2023-07-09T01:43:31;27.00;62.30
7900;DHT22;3995;50.856;4.404;2023-07-09T01:45:59;27.00;62.30
7900;DHT22;3995;50.856;4.404;2023-07-09T01:48:28;27.00;62.30
7900;DHT22;3995;50.856;4.404;2023-07-09T01:50:56;27.00;62.40
7900;DHT22;3995;50.856;4.404;2023-07-09T01:53:26;27.00;62.30
7900;DHT22;3995;50.856;4.404;2023-07-09T01:55:56;27.00;62.00
7900;DHT22;3995;50.856;4.404;2023-07-09T01:58:24;26.90;61.90
7900;DHT22;3995;50.856;4.404;2023-07-09T02:00:56;26.90;62.20
7900;DHT22;3995;50.856;4.404;2023-07-09T02:03:24;27.00;62.40
7900;DHT22;3995;50.856;4.404;2023-07-09T02:05:53;27.00;62.20
7900;DHT22;3995;50.856;4.404;2023-07-09T02:08:20;26.90;61.70
7900;DHT22;3995;50.856;4.404;2023-07-09T02:10:50;26.90;60.90
7900;DHT22;3995;50.856;4.404;2023-07-09T02:13:17;26.90;61.10
7900;DHT22;3995;50.856;4.404;2023-07-09T02:15:45;26.90;60.50
7900;DHT22;3995;50.856;4.404;2023-07-09T02:18:14;26.90;60.80
7900;DHT22;3995;50.856;4.404;2023-07-09T02:20:42;26.90;60.90
7900;DHT22;3995;50.856;4.404;2023-07-09T02:23:10;26.90;60.50
7900;DHT22;3995;50.856;4.404;2023-07-09T02:25:37;26.90;60.20
7900;DHT22;3995;50.856;4.404;2023-07-09T02:28:07;26.90;59.90
7900;DHT22;3995;50.856;4.404;2023-07-09T02:30:35;26.90;59.60
7900;DHT22;3995;50.856;4.404;2023-07-09T02:33:02;26.90;59.70
7900;DHT22;3995;50.856;4.404;2023-07-09T02:35:30;26.90;59.70
7900;DHT22;3995;50.856;4.404;2023-07-09T02:37:59;26.90;59.50
7900;DHT22;3995;50.856;4.404;2023-07-09T02:40:27;26.90;59.40
7900;DHT22;3995;50.856;4.404;2023-07-09T02:42:54;26.90;59.60
7900;DHT22;3995;50.856;4.404;2023-07-09T02:45:23;26.90;59.40
7900;DHT22;3995;50.856;4.404;2023-07-09T02:47:50;26.90;59.40
7900;DHT22;3995;50.856;4.404;2023-07-09T02:50:19;26.90;59.20
7900;DHT22;3995;50.856;4.404;2023-07-09T02:52:47;26.80;59.00
7900;DHT22;3995;50.856;4.404;2023-07-09T02:55:14;26.80;58.90
7900;DHT22;3995;50.856;4.404;2023-07-09T02:57:42;26.80;59.00
7900;DHT22;3995;50.856;4.404;2023-07-09T03:00:10;26.80;59.00
7900;DHT22;3995;50.856;4.404;2023-07-09T03:02:39;26.80;59.00
7900;DHT22;3995;50.856;4.404;2023-07-09T03:05:08;26.80;58.90
7900;DHT22;3995;50.856;4.404;2023-07-09T03:07:36;26.80;58.90
7900;DHT22;3995;50.856;4.404;2023-07-09T03:10:04;26.90;59.10
7900;DHT22;3995;50.856;4.404;2023-07-09T03:12:32;26.90;58.90
7900;DHT22;3995;50.856;4.404;2023-07-09T03:14:59;26.80;59.00
7900;DHT22;3995;50.856;4.404;2023-07-09T03:17:26;26.80;59.20
7900;DHT22;3995;50.856;4.404;2023-07-09T03:19:56;26.80;58.70
7900;DHT22;3995;50.856;4.404;2023-07-09T03:22:23;26.80;58.70
7900;DHT22;3995;50.856;4.404;2023-07-09T03:24:50;26.80;58.70
7900;DHT22;3995;50.856;4.404;2023-07-09T03:27:17;26.80;58.80
7900;DHT22;3995;50.856;4.404;2023-07-09T03:29:45;26.80;58.50
7900;DHT22;3995;50.856;4.404;2023-07-09T03:32:12;26.80;58.50
7900;DHT22;3995;50.856;4.404;2023-07-09T03:34:39;26.80;58.50
7900;DHT22;3995;50.856;4.404;2023-07-09T03:37:08;26.80;58.50
7900;DHT22;3995;50.856;4.404;2023-07-09T03:39:36;26.80;58.40
7900;DHT22;3995;50.856;4.404;2023-07-09T03:42:04;26.80;58.10
7900;DHT22;3995;50.856;4.404;2023-07-09T03:44:31;26.80;58.30
7900;DHT22;3995;50.856;4.404;2023-07-09T03:46:59;26.70;58.60
7900;DHT22;3995;50.856;4.404;2023-07-09T03:49:26;26.70;58.50
7900;DHT22;3995;50.856;4.404;2023-07-09T03:51:53;26.80;58.80
7900;DHT22;3995;50.856;4.404;2023-07-09T03:54:22;26.70;58.70
7900;DHT22;3995;50.856;4.404;2023-07-09T03:56:49;26.70;58.70
7900;DHT22;3995;50.856;4.404;2023-07-09T03:59:17;26.70;58.90
7900;DHT22;3995;50.856;4.404;2023-07-09T04:01:44;26.70;58.90
7900;DHT22;3995;50.856;4.404;2023-07-09T04:04:12;26.70;59.00
7900;DHT22;3995;50.856;4.404;2023-07-09T04:06:40;26.70;58.70
7900;DHT22;3995;50.856;4.404;2023-07-09T04:09:09;26.70;58.90
7900;DHT22;3995;50.856;4.404;2023-07-09T04:11:39;26.70;59.50
7900;DHT22;3995;50.856;4.404;2023-07-09T04:14:06;26.70;59.20
7900;DHT22;3995;50.856;4.404;2023-07-09T04:16:33;26.70;59.10
7900;DHT22;3995;50.856;4.404;2023-07-09T04:19:00;26.70;58.90
7900;DHT22;3995;50.856;4.404;2023-07-09T04:21:27;26.70;58.50
7900;DHT22;3995;50.856;4.404;2023-07-09T04:23:55;26.70;58.50
7900;DHT22;3995;50.856;4.404;2023-07-09T04:26:22;26.70;58.30
7900;DHT22;3995;50.856;4.404;2023-07-09T04:28:51;26.70;58.30
7900;DHT22;3995;50.856;4.404;2023-07-09T04:31:19;26.70;58.50
7900;DHT22;3995;50.856;4.404;2023-07-09T04:33:46;26.60;58.30
7900;DHT22;3995;50.856;4.404;2023-07-09T04:36:14;26.60;58.60
7900;DHT22;3995;50.856;4.404;2023-07-09T04:38:42;26.60;58.50
7900;DHT22;3995;50.856;4.404;2023-07-09T04:41:09;26.70;58.70
7900;DHT22;3995;50.856;4.404;2023-07-09T04:43:37;26.60;58.80
7900;DHT22;3995;50.856;4.404;2023-07-09T04:46:06;26.60;58.80
7900;DHT22;3995;50.856;4.404;2023-07-09T04:48:35;26.60;58.80
7900;DHT22;3995;50.856;4.404;2023-07-09T04:51:04;26.60;58.70
7900;DHT22;3995;50.856;4.404;2023-07-09T04:53:32;26.60;58.80
7900;DHT22;3995;50.856;4.404;2023-07-09T04:55:59;26.60;58.90
7900;DHT22;3995;50.856;4.404;2023-07-09T04:58:28;26.60;59.00
7900;DHT22;3995;50.856;4.404;2023-07-09T05:00:57;26.60;58.90
7900;DHT22;3995;50.856;4.404;2023-07-09T05:03:27;26.60;58.90
7900;DHT22;3995;50.856;4.404;2023-07-09T05:05:55;26.60;58.90
7900;DHT22;3995;50.856;4.404;2023-07-09T05:08:22;26.60;59.00
7900;DHT22;3995;50.856;4.404;2023-07-09T05:10:51;26.60;59.20
7900;DHT22;3995;50.856;4.404;2023-07-09T05:13:19;26.60;58.90
7900;DHT22;3995;50.856;4.404;2023-07-09T05:15:47;26.60;58.80
7900;DHT22;3995;50.856;4.404;2023-07-09T05:18:15;26.60;59.00
7900;DHT22;3995;50.856;4.404;2023-07-09T05:20:45;26.60;58.90
7900;DHT22;3995;50.856;4.404;2023-07-09T05:23:13;26.60;58.70
7900;DHT22;3995;50.856;4.404;2023-07-09T05:25:41;26.60;58.60
7900;DHT22;3995;50.856;4.404;2023-07-09T05:28:09;26.60;58.70
7900;DHT22;3995;50.856;4.404;2023-07-09T05:30:36;26.60;58.70
7900;DHT22;3995;50.856;4.404;2023-07-09T05:33:04;26.60;58.50
7900;DHT22;3995;50.856;4.404;2023-07-09T05:35:32;26.60;58.40
7900;DHT22;3995;50.856;4.404;2023-07-09T05:38:02;26.60;58.40
7900;DHT22;3995;50.856;4.404;2023-07-09T05:40:29;26.60;58.30
7900;DHT22;3995;50.856;4.404;2023-07-09T05:42:57;26.60;58.50
7900;DHT22;3995;50.856;4.404;2023-07-09T05:45:24;26.70;58.70
7900;DHT22;3995;50.856;4.404;2023-07-09T05:47:52;26.70;58.40
7900;DHT22;3995;50.856;4.404;2023-07-09T05:50:19;26.70;58.20
7900;DHT22;3995;50.856;4.404;2023-07-09T05:52:47;26.70;58.30
7900;DHT22;3995;50.856;4.404;2023-07-09T05:55:16;26.70;58.50
7900;DHT22;3995;50.856;4.404;2023-07-09T05:57:44;26.70;58.40
7900;DHT22;3995;50.856;4.404;2023-07-09T06:00:12;26.70;58.70
7900;DHT22;3995;50.856;4.404;2023-07-09T06:02:40;26.70;58.40
7900;DHT22;3995;50.856;4.404;2023-07-09T06:05:08;26.70;58.30
7900;DHT22;3995;50.856;4.404;2023-07-09T06:07:37;26.70;58.30
7900;DHT22;3995;50.856;4.404;2023-07-09T06:10:08;26.70;58.30
7900;DHT22;3995;50.856;4.404;2023-07-09T06:12:37;26.80;58.20
7900;DHT22;3995;50.856;4.404;2023-07-09T06:15:07;26.70;58.20
7900;DHT22;3995;50.856;4.404;2023-07-09T06:17:34;26.80;58.30
7900;DHT22;3995;50.856;4.404;2023-07-09T06:20:05;26.80;58.10
7900;DHT22;3995;50.856;4.404;2023-07-09T06:22:32;26.80;58.30
7900;DHT22;3995;50.856;4.404;2023-07-09T06:25:00;26.80;58.20
7900;DHT22;3995;50.856;4.404;2023-07-09T06:27:27;26.80;58.20
7900;DHT22;3995;50.856;4.404;2023-07-09T06:29:56;26.80;58.40
7900;DHT22;3995;50.856;4.404;2023-07-09T06:32:23;26.80;58.40
7900;DHT22;3995;50.856;4.404;2023-07-09T06:34:51;26.80;58.20
7900;DHT22;3995;50.856;4.404;2023-07-09T06:37:18;26.80;58.30
7900;DHT22;3995;50.856;4.404;2023-07-09T06:39:46;26.80;58.40
7900;DHT22;3995;50.856;4.404;2023-07-09T06:42:13;26.80;58.50
7900;DHT22;3995;50.856;4.404;2023-07-09T06:44:40;26.80;58.50
7900;DHT22;3995;50.856;4.404;2023-07-09T06:47:10;26.80;58.50
7900;DHT22;3995;50.856;4.404;2023-07-09T06:49:37;26.80;58.60
7900;DHT22;3995;50.856;4.404;2023-07-09T06:52:05;26.80;58.50
7900;DHT22;3995;50.856;4.404;2023-07-09T06:54:33;26.80;58.50
7900;DHT22;3995;50.856;4.404;2023-07-09T06:57:03;26.80;59.00
7900;DHT22;3995;50.856;4.404;2023-07-09T06:59:31;26.80;58.40
7900;DHT22;3995;50.856;4.404;2023-07-09T07:01:58;26.80;58.50
7900;DHT22;3995;50.856;4.404;2023-07-09T07:04:27;26.80;58.60
7900;DHT22;3995;50.856;4.404;2023-07-09T07:06:55;26.80;58.60
7900;DHT22;3995;50.856;4.404;2023-07-09T07:09:22;26.80;58.70
7900;DHT22;3995;50.856;4.404;2023-07-09T07:11:50;26.80;58.80
7900;DHT22;3995;50.856;4.404;2023-07-09T07:14:17;26.80;58.80
7900;DHT22;3995;50.856;4.404;2023-07-09T07:16:44;26.80;58.80
7900;DHT22;3995;50.856;4.404;2023-07-09T07:19:12;26.80;59.00
7900;DHT22;3995;50.856;4.404;2023-07-09T07:21:41;26.80;59.10
7900;DHT22;3995;50.856;4.404;2023-07-09T07:24:08;26.90;59.20
7900;DHT22;3995;50.856;4.404;2023-07-09T07:26:36;26.90;59.30
7900;DHT22;3995;50.856;4.404;2023-07-09T07:29:03;26.90;59.40
7900;DHT22;3995;50.856;4.404;2023-07-09T07:31:30;26.90;59.40
7900;DHT22;3995;50.856;4.404;2023-07-09T07:33:57;26.90;59.40
7900;DHT22;3995;50.856;4.404;2023-07-09T07:36:25;26.90;59.50
7900;DHT22;3995;50.856;4.404;2023-07-09T07:38:55;26.90;59.50
7900;DHT22;3995;50.856;4.404;2023-07-09T07:41:22;26.90;59.70
7900;DHT22;3995;50.856;4.404;2023-07-09T07:43:50;26.90;59.70
7900;DHT22;3995;50.856;4.404;2023-07-09T07:46:19;26.90;59.80
7900;DHT22;3995;50.856;4.404;2023-07-09T07:48:47;27.00;59.80
7900;DHT22;3995;50.856;4.404;2023-07-09T07:51:14;27.00;59.80
7900;DHT22;3995;50.856;4.404;2023-07-09T07:53:42;27.00;59.70
7900;DHT22;3995;50.856;4.404;2023-07-09T07:56:11;27.00;59.60
7900;DHT22;3995;50.856;4.404;2023-07-09T07:58:39;27.00;59.20
7900;DHT22;3995;50.856;4.404;2023-07-09T08:01:07;27.00;59.20
7900;DHT22;3995;50.856;4.404;2023-07-09T08:03:36;27.00;59.10
7900;DHT22;3995;50.856;4.404;2023-07-09T08:06:03;27.00;59.10
7900;DHT22;3995;50.856;4.404;2023-07-09T08:08:31;27.00;58.90
7900;DHT22;3995;50.856;4.404;2023-07-09T08:11:04;27.00;58.80
7900;DHT22;3995;50.856;4.404;2023-07-09T08:13:35;27.00;58.80
7900;DHT22;3995;50.856;4.404;2023-07-09T08:16:04;27.00;58.60
7900;DHT22;3995;50.856;4.404;2023-07-09T08:18:31;27.00;58.60
7900;DHT22;3995;50.856;4.404;2023-07-09T08:21:00;27.00;58.50
7900;DHT22;3995;50.856;4.404;2023-07-09T08:23:28;27.00;58.40
7900;DHT22;3995;50.856;4.404;2023-07-09T08:25:56;27.00;58.20
7900;DHT22;3995;50.856;4.404;2023-07-09T08:28:24;27.00;57.90
7900;DHT22;3995;50.856;4.404;2023-07-09T08:30:56;27.00;57.40
7900;DHT22;3995;50.856;4.404;2023-07-09T08:33:24;27.00;57.10
7900;DHT22;3995;50.856;4.404;2023-07-09T08:35:52;27.00;56.90
7900;DHT22;3995;50.856;4.404;2023-07-09T08:38:20;27.00;56.70
7900;DHT22;3995;50.856;4.404;2023-07-09T08:40:57;27.00;56.60
7900;DHT22;3995;50.856;4.404;2023-07-09T08:43:34;27.00;56.30
7900;DHT22;3995;50.856;4.404;2023-07-09T08:46:10;27.00;56.10
7900;DHT22;3995;50.856;4.404;2023-07-09T08:48:44;27.00;56.50
7900;DHT22;3995;50.856;4.404;2023-07-09T08:51:15;27.00;56.60
7900;DHT22;3995;50.856;4.404;2023-07-09T08:53:48;27.00;56.50
7900;DHT22;3995;50.856;4.404;2023-07-09T08:56:17;27.00;56.50
7900;DHT22;3995;50.856;4.404;2023-07-09T08:58:46;27.00;56.50
7900;DHT22;3995;50.856;4.404;2023-07-09T09:01:20;27.00;56.40
7900;DHT22;3995;50.856;4.404;2023-07-09T09:03:50;27.00;56.50
7900;DHT22;3995;50.856;4.404;2023-07-09T09:06:21;27.00;56.60
7900;DHT22;3995;50.856;4.404;2023-07-09T09:09:00;27.10;56.70
7900;DHT22;3995;50.856;4.404;2023-07-09T09:11:37;27.10;56.90
7900;DHT22;3995;50.856;4.404;2023-07-09T09:14:19;27.10;56.80
7900;DHT22;3995;50.856;4.404;2023-07-09T09:16:53;27.10;56.50
7900;DHT22;3995;50.856;4.404;2023-07-09T09:19:23;27.10;56.70
7900;DHT22;3995;50.856;4.404;2023-07-09T09:21:57;27.10;56.90
7900;DHT22;3995;50.856;4.404;2023-07-09T09:24:29;27.10;56.90
7900;DHT22;3995;50.856;4.404;2023-07-09T09:26:58;27.10;56.70
7900;DHT22;3995;50.856;4.404;2023-07-09T09:29:26;27.10;57.00
7900;DHT22;3995;50.856;4.404;2023-07-09T09:32:14;27.10;57.10
7900;DHT22;3995;50.856;4.404;2023-07-09T09:34:43;27.20;56.90
7900;DHT22;3995;50.856;4.404;2023-07-09T09:37:11;27.10;57.00
7900;DHT22;3995;50.856;4.404;2023-07-09T09:39:39;27.10;57.00
7900;DHT22;3995;50.856;4.404;2023-07-09T09:42:11;27.10;56.90
7900;DHT22;3995;50.856;4.404;2023-07-09T09:44:43;27.20;56.90
7900;DHT22;3995;50.856;4.404;2023-07-09T09:47:13;27.20;56.80
7900;DHT22;3995;50.856;4.404;2023-07-09T09:49:40;27.20;57.10
7900;DHT22;3995;50.856;4.404;2023-07-09T09:52:12;27.20;57.30
7900;DHT22;3995;50.856;4.404;2023-07-09T09:54:41;27.30;57.40
7900;DHT22;3995;50.856;4.404;2023-07-09T09:57:17;27.30;57.70
7900;DHT22;3995;50.856;4.404;2023-07-09T09:59:46;27.30;57.60
7900;DHT22;3995;50.856;4.404;2023-07-09T10:02:17;27.30;57.60
7900;DHT22;3995;50.856;4.404;2023-07-09T10:04:46;27.40;57.70
7900;DHT22;3995;50.856;4.404;2023-07-09T10:07:22;27.40;57.40
7900;DHT22;3995;50.856;4.404;2023-07-09T10:09:52;27.40;57.50
7900;DHT22;3995;50.856;4.404;2023-07-09T10:12:35;27.40;57.50
7900;DHT22;3995;50.856;4.404;2023-07-09T10:15:14;27.50;57.20
7900;DHT22;3995;50.856;4.404;2023-07-09T10:17:53;27.50;57.30
7900;DHT22;3995;50.856;4.404;2023-07-09T10:20:24;27.60;57.30
7900;DHT22;3995;50.856;4.404;2023-07-09T10:22:55;27.60;57.30
7900;DHT22;3995;50.856;4.404;2023-07-09T10:25:35;27.60;57.30
7900;DHT22;3995;50.856;4.404;2023-07-09T10:28:24;27.70;57.30
7900;DHT22;3995;50.856;4.404;2023-07-09T10:31:03;27.70;57.70
7900;DHT22;3995;50.856;4.404;2023-07-09T10:33:50;27.70;57.80
7900;DHT22;3995;50.856;4.404;2023-07-09T10:36:30;27.70;57.70
7900;DHT22;3995;50.856;4.404;2023-07-09T10:39:07;27.70;57.70
7900;DHT22;3995;50.856;4.404;2023-07-09T10:41:37;27.70;57.80
7900;DHT22;3995;50.856;4.404;2023-07-09T10:44:10;27.80;57.90
7900;DHT22;3995;50.856;4.404;2023-07-09T10:46:41;27.80;58.00
7900;DHT22;3995;50.856;4.404;2023-07-09T10:49:13;27.80;57.90
7900;DHT22;3995;50.856;4.404;2023-07-09T10:51:45;27.80;57.60
7900;DHT22;3995;50.856;4.404;2023-07-09T10:54:21;27.80;57.80
7900;DHT22;3995;50.856;4.404;2023-07-09T10:56:56;27.80;57.80
7900;DHT22;3995;50.856;4.404;2023-07-09T10:59:29;27.80;57.90
7900;DHT22;3995;50.856;4.404;2023-07-09T11:02:05;27.80;57.90
7900;DHT22;3995;50.856;4.404;2023-07-09T11:04:47;27.80;57.90
7900;DHT22;3995;50.856;4.404;2023-07-09T11:07:18;27.80;57.80
7900;DHT22;3995;50.856;4.404;2023-07-09T11:09:48;27.80;57.80
7900;DHT22;3995;50.856;4.404;2023-07-09T11:12:23;27.80;57.70
7900;DHT22;3995;50.856;4.404;2023-07-09T11:14:56;27.80;57.80
7900;DHT22;3995;50.856;4.404;2023-07-09T11:17:27;27.80;57.70
7900;DHT22;3995;50.856;4.404;2023-07-09T11:19:58;27.80;57.70
7900;DHT22;3995;50.856;4.404;2023-07-09T11:22:35;27.80;57.60
7900;DHT22;3995;50.856;4.404;2023-07-09T11:25:08;27.80;57.40
7900;DHT22;3995;50.856;4.404;2023-07-09T11:27:50;27.80;57.20
7900;DHT22;3995;50.856;4.404;2023-07-09T11:30:20;27.80;57.30
7900;DHT22;3995;50.856;4.404;2023-07-09T11:32:53;27.70;57.40
7900;DHT22;3995;50.856;4.404;2023-07-09T11:35:24;27.70;57.10
7900;DHT22;3995;50.856;4.404;2023-07-09T11:37:52;27.70;57.10
7900;DHT22;3995;50.856;4.404;2023-07-09T11:40:22;27.60;57.10
7900;DHT22;3995;50.856;4.404;2023-07-09T11:42:52;27.60;57.00
7900;DHT22;3995;50.856;4.404;2023-07-09T11:45:24;27.60;57.00
7900;DHT22;3995;50.856;4.404;2023-07-09T11:47:58;27.60;57.00
7900;DHT22;3995;50.856;4.404;2023-07-09T11:50:33;27.60;56.90
7900;DHT22;3995;50.856;4.404;2023-07-09T11:53:05;27.50;56.80
7900;DHT22;3995;50.856;4.404;2023-07-09T11:55:43;27.50;57.00
7900;DHT22;3995;50.856;4.404;2023-07-09T11:58:14;27.50;57.00
7900;DHT22;3995;50.856;4.404;2023-07-09T12:00:44;27.50;57.00
7900;DHT22;3995;50.856;4.404;2023-07-09T12:03:18;27.50;57.00
7900;DHT22;3995;50.856;4.404;2023-07-09T12:05:52;27.50;57.10
7900;DHT22;3995;50.856;4.404;2023-07-09T12:08:22;27.50;57.10
7900;DHT22;3995;50.856;4.404;2023-07-09T12:10:53;27.40;57.10
7900;DHT22;3995;50.856;4.404;2023-07-09T12:13:23;27.40;57.10
7900;DHT22;3995;50.856;4.404;2023-07-09T12:15:50;27.40;57.00
7900;DHT22;3995;50.856;4.404;2023-07-09T12:18:18;27.40;57.20
7900;DHT22;3995;50.856;4.404;2023-07-09T12:20:50;27.40;57.50
7900;DHT22;3995;50.856;4.404;2023-07-09T12:23:23;27.40;58.10
7900;DHT22;3995;50.856;4.404;2023-07-09T12:25:53;27.40;58.30
7900;DHT22;3995;50.856;4.404;2023-07-09T12:28:22;27.30;58.70
7900;DHT22;3995;50.856;4.404;2023-07-09T12:30:51;27.30;59.10
7900;DHT22;3995;50.856;4.404;2023-07-09T12:33:20;27.30;59.90
7900;DHT22;3995;50.856;4.404;2023-07-09T12:35:52;27.30;61.70
7900;DHT22;3995;50.856;4.404;2023-07-09T12:38:21;27.30;63.40
7900;DHT22;3995;50.856;4.404;2023-07-09T12:40:50;27.30;63.10
7900;DHT22;3995;50.856;4.404;2023-07-09T12:43:22;27.20;64.20
7900;DHT22;3995;50.856;4.404;2023-07-09T12:45:51;27.20;64.10
7900;DHT22;3995;50.856;4.404;2023-07-09T12:48:21;27.10;64.60
7900;DHT22;3995;50.856;4.404;2023-07-09T12:50:51;27.10;65.50
7900;DHT22;3995;50.856;4.404;2023-07-09T12:53:26;27.10;65.90
7900;DHT22;3995;50.856;4.404;2023-07-09T12:55:55;27.10;67.50
7900;DHT22;3995;50.856;4.404;2023-07-09T12:58:25;27.00;67.50
7900;DHT22;3995;50.856;4.404;2023-07-09T13:00:55;27.00;67.90
7900;DHT22;3995;50.856;4.404;2023-07-09T13:03:26;27.00;69.40
7900;DHT22;3995;50.856;4.404;2023-07-09T13:05:57;27.00;69.50
7900;DHT22;3995;50.856;4.404;2023-07-09T13:08:25;27.00;69.20
7900;DHT22;3995;50.856;4.404;2023-07-09T13:10:53;27.00;69.10
7900;DHT22;3995;50.856;4.404;2023-07-09T13:13:23;27.00;69.10
7900;DHT22;3995;50.856;4.404;2023-07-09T13:15:54;27.00;68.90
7900;DHT22;3995;50.856;4.404;2023-07-09T13:18:25;27.00;68.80
7900;DHT22;3995;50.856;4.404;2023-07-09T13:20:56;27.00;68.90
7900;DHT22;3995;50.856;4.404;2023-07-09T13:23:25;27.00;69.10
7900;DHT22;3995;50.856;4.404;2023-07-09T13:25:54;27.00;69.30
7900;DHT22;3995;50.856;4.404;2023-07-09T13:28:25;27.00;69.10
7900;DHT22;3995;50.856;4.404;2023-07-09T13:30:57;27.00;69.30
7900;DHT22;3995;50.856;4.404;2023-07-09T13:33:26;27.00;69.20
7900;DHT22;3995;50.856;4.404;2023-07-09T13:35:55;27.00;69.60
7900;DHT22;3995;50.856;4.404;2023-07-09T13:38:24;27.00;69.60
7900;DHT22;3995;50.856;4.404;2023-07-09T13:40:54;27.00;69.70
7900;DHT22;3995;50.856;4.404;2023-07-09T13:43:28;27.00;69.60
7900;DHT22;3995;50.856;4.404;2023-07-09T13:45:55;27.00;69.20
7900;DHT22;3995;50.856;4.404;2023-07-09T13:48:23;26.90;68.90
7900;DHT22;3995;50.856;4.404;2023-07-09T13:50:53;26.90;68.60
7900;DHT22;3995;50.856;4.404;2023-07-09T13:53:29;26.90;68.70
7900;DHT22;3995;50.856;4.404;2023-07-09T13:55:57;26.90;68.70
7900;DHT22;3995;50.856;4.404;2023-07-09T13:58:26;26.90;68.60
7900;DHT22;3995;50.856;4.404;2023-07-09T14:00:57;26.90;68.40
7900;DHT22;3995;50.856;4.404;2023-07-09T14:03:32;27.00;68.20
7900;DHT22;3995;50.856;4.404;2023-07-09T14:06:00;26.90;67.80
7900;DHT22;3995;50.856;4.404;2023-07-09T14:08:30;26.90;67.60
7900;DHT22;3995;50.856;4.404;2023-07-09T14:10:58;26.90;67.50
7900;DHT22;3995;50.856;4.404;2023-07-09T14:13:25;27.00;68.10
7900;DHT22;3995;50.856;4.404;2023-07-09T14:15:53;27.00;68.40
7900;DHT22;3995;50.856;4.404;2023-07-09T14:18:22;27.00;67.90
7900;DHT22;3995;50.856;4.404;2023-07-09T14:20:49;27.10;67.70
7900;DHT22;3995;50.856;4.404;2023-07-09T14:23:18;27.20;67.80
7900;DHT22;3995;50.856;4.404;2023-07-09T14:25:47;27.20;67.60
7900;DHT22;3995;50.856;4.404;2023-07-09T14:28:16;27.30;67.20
7900;DHT22;3995;50.856;4.404;2023-07-09T14:30:45;27.40;66.80
7900;DHT22;3995;50.856;4.404;2023-07-09T14:33:14;27.40;66.60
7900;DHT22;3995;50.856;4.404;2023-07-09T14:35:46;27.60;66.50
7900;DHT22;3995;50.856;4.404;2023-07-09T14:38:17;27.70;66.10
7900;DHT22;3995;50.856;4.404;2023-07-09T14:40:47;27.80;66.00
7900;DHT22;3995;50.856;4.404;2023-07-09T14:43:16;27.90;65.30
7900;DHT22;3995;50.856;4.404;2023-07-09T14:45:43;28.00;65.20
7900;DHT22;3995;50.856;4.404;2023-07-09T14:48:12;28.00;64.80
7900;DHT22;3995;50.856;4.404;2023-07-09T14:50:39;28.00;64.50
7900;DHT22;3995;50.856;4.404;2023-07-09T14:53:13;28.10;64.40
7900;DHT22;3995;50.856;4.404;2023-07-09T14:55:41;28.10;63.90
7900;DHT22;3995;50.856;4.404;2023-07-09T14:58:21;28.20;63.90
7900;DHT22;3995;50.856;4.404;2023-07-09T15:00:49;28.30;63.70
7900;DHT22;3995;50.856;4.404;2023-07-09T15:03:19;28.30;63.00
7900;DHT22;3995;50.856;4.404;2023-07-09T15:05:47;28.40;62.60
7900;DHT22;3995;50.856;4.404;2023-07-09T15:08:16;28.40;62.10
7900;DHT22;3995;50.856;4.404;2023-07-09T15:10:45;28.50;62.30
7900;DHT22;3995;50.856;4.404;2023-07-09T15:13:16;28.50;61.90
7900;DHT22;3995;50.856;4.404;2023-07-09T15:15:46;28.60;61.20
7900;DHT22;3995;50.856;4.404;2023-07-09T15:18:15;28.70;61.70
7900;DHT22;3995;50.856;4.404;2023-07-09T15:20:48;28.80;61.70
7900;DHT22;3995;50.856;4.404;2023-07-09T15:23:16;28.80;61.20
7900;DHT22;3995;50.856;4.404;2023-07-09T15:25:47;28.90;61.20
7900;DHT22;3995;50.856;4.404;2023-07-09T15:28:15;28.90;60.90
7900;DHT22;3995;50.856;4.404;2023-07-09T15:30:45;28.90;60.50
7900;DHT22;3995;50.856;4.404;2023-07-09T15:33:18;29.00;60.60
7900;DHT22;3995;50.856;4.404;2023-07-09T15:35:48;29.00;60.60
7900;DHT22;3995;50.856;4.404;2023-07-09T15:38:28;29.00;60.50
7900;DHT22;3995;50.856;4.404;2023-07-09T15:40:56;29.10;60.60
7900;DHT22;3995;50.856;4.404;2023-07-09T15:43:25;29.00;60.60
7900;DHT22;3995;50.856;4.404;2023-07-09T15:45:55;29.00;60.50
7900;DHT22;3995;50.856;4.404;2023-07-09T15:48:25;29.00;60.20
7900;DHT22;3995;50.856;4.404;2023-07-09T15:50:53;29.00;60.20
7900;DHT22;3995;50.856;4.404;2023-07-09T15:53:21;29.00;61.00
7900;DHT22;3995;50.856;4.404;2023-07-09T15:55:48;28.90;60.80
7900;DHT22;3995;50.856;4.404;2023-07-09T15:58:20;28.90;61.40
7900;DHT22;3995;50.856;4.404;2023-07-09T16:00:49;28.90;61.30
7900;DHT22;3995;50.856;4.404;2023-07-09T16:03:19;28.80;61.30
7900;DHT22;3995;50.856;4.404;2023-07-09T16:05:47;28.70;61.40
7900;DHT22;3995;50.856;4.404;2023-07-09T16:08:14;28.70;61.60
7900;DHT22;3995;50.856;4.404;2023-07-09T16:10:42;28.60;61.60
7900;DHT22;3995;50.856;4.404;2023-07-09T16:13:17;28.60;61.60
7900;DHT22;3995;50.856;4.404;2023-07-09T16:15:45;28.60;61.40
7900;DHT22;3995;50.856;4.404;2023-07-09T16:18:12;28.50;61.30